createdAt,value
2023-08-01T00:01:02.208Z,97631.03
2023-08-01T00:03:29.186Z,97637.25
2023-08-01T00:05:56.231Z,97621.13
2023-08-01T00:08:23.019Z,97592.19
2023-08-01T00:10:49.934Z,97564.75
2023-08-01T00:13:16.659Z,97573.72
2023-08-01T00:15:50.679Z,97556.06
2023-08-01T00:18:27.964Z,97549.13
2023-08-01T00:20:54.959Z,97538.47
2023-08-01T00:23:21.781Z,97526.91
2023-08-01T00:25:52.591Z,97521.88
2023-08-01T00:28:19.657Z,97496.78
2023-08-01T00:30:46.660Z,97486.06
2023-08-01T00:33:14.201Z,97492.47
2023-08-01T00:35:40.914Z,97490.03
2023-08-01T00:38:07.953Z,97477.75
2023-08-01T00:40:35.493Z,97462.53
2023-08-01T00:43:02.165Z,97441.03
2023-08-01T00:45:30.101Z,97434.78
2023-08-01T00:47:57.734Z,97426.72
2023-08-01T00:50:25.719Z,97427.47
2023-08-01T00:52:53.813Z,97419.34
2023-08-01T00:55:22.339Z,97416.47
2023-08-01T00:57:49.493Z,97388.69
2023-08-01T01:00:16.265Z,97382.59
2023-08-01T01:02:42.990Z,97377.53
2023-08-01T01:05:09.956Z,97382.75
2023-08-01T01:07:38.159Z,97374.19
2023-08-01T01:10:05.072Z,97366.19
2023-08-01T01:12:31.810Z,97363.69
2023-08-01T01:14:58.484Z,97353.50
2023-08-01T01:17:25.190Z,97356.81
2023-08-01T01:19:51.990Z,97350.88
2023-08-01T01:22:20.015Z,97359.88
2023-08-01T01:24:47.909Z,97353.53
2023-08-01T01:27:16.650Z,97345.88
2023-08-01T01:29:44.712Z,97346.25
2023-08-01T01:32:12.163Z,97351.34
2023-08-01T01:34:38.911Z,97337.00
2023-08-01T01:37:05.786Z,97333.13
2023-08-01T01:39:32.481Z,97333.13
2023-08-01T01:41:59.224Z,97333.13
2023-08-01T01:44:25.904Z,97323.38
2023-08-01T01:46:52.681Z,97314.00
2023-08-01T01:49:19.484Z,97305.63
2023-08-01T01:51:46.180Z,97307.69
2023-08-01T01:54:12.870Z,97295.63
2023-08-01T01:56:39.937Z,97290.94
2023-08-01T01:59:06.855Z,97291.25
2023-08-01T02:01:33.522Z,97286.38
2023-08-01T02:04:00.244Z,97272.38
2023-08-01T02:06:26.919Z,97274.31
2023-08-01T02:08:53.697Z,97264.41
2023-08-01T02:11:20.435Z,97260.75
2023-08-01T02:13:47.123Z,97257.53
2023-08-01T02:16:13.862Z,97265.22
2023-08-01T02:18:40.629Z,97261.19
2023-08-01T02:21:07.458Z,97264.75
2023-08-01T02:23:37.359Z,97249.63
2023-08-01T02:26:04.510Z,97252.59
2023-08-01T02:28:31.329Z,97244.63
2023-08-01T02:30:58.039Z,97243.91
2023-08-01T02:33:24.839Z,97231.75
2023-08-01T02:35:51.604Z,97232.63
2023-08-01T02:38:18.382Z,97226.28
2023-08-01T02:40:45.075Z,97209.28
2023-08-01T02:43:11.726Z,97209.38
2023-08-01T02:45:38.451Z,97200.69
2023-08-01T02:48:05.423Z,97198.97
2023-08-01T02:50:32.141Z,97210.16
2023-08-01T02:52:58.837Z,97212.53
2023-08-01T02:55:25.521Z,97205.75
2023-08-01T02:57:52.246Z,97214.13
2023-08-01T03:00:19.042Z,97210.09
2023-08-01T03:02:47.061Z,97215.13
2023-08-01T03:05:13.938Z,97226.91
2023-08-01T03:07:41.001Z,97223.19
2023-08-01T03:10:08.051Z,97224.31
2023-08-01T03:12:36.109Z,97208.28
2023-08-01T03:15:02.787Z,97204.63
2023-08-01T03:17:29.478Z,97202.47
2023-08-01T03:19:56.218Z,97212.75
2023-08-01T03:22:23.180Z,97201.13
2023-08-01T03:24:49.922Z,97208.28
2023-08-01T03:27:16.605Z,97215.91
2023-08-01T03:29:43.322Z,97216.09
2023-08-01T03:32:10.022Z,97226.38
2023-08-01T03:34:36.939Z,97222.44
2023-08-01T03:37:04.916Z,97210.16
2023-08-01T03:39:31.629Z,97203.28
2023-08-01T03:41:58.347Z,97190.47
2023-08-01T03:44:25.149Z,97184.72
2023-08-01T03:46:51.836Z,97174.00
2023-08-01T03:49:19.439Z,97187.06
2023-08-01T03:51:46.258Z,97186.25
2023-08-01T03:54:14.316Z,97161.13
2023-08-01T03:56:44.491Z,97157.50
2023-08-01T03:59:17.446Z,97142.44
2023-08-01T04:01:44.224Z,97142.25
2023-08-01T04:04:11.193Z,97140.75
2023-08-01T04:06:38.805Z,97147.06
2023-08-01T04:09:07.697Z,97144.56
2023-08-01T04:11:34.617Z,97141.66
2023-08-01T04:14:01.376Z,97132.69
2023-08-01T04:16:28.076Z,97135.72
2023-08-01T04:18:54.779Z,97138.09
2023-08-01T04:21:21.481Z,97129.53
2023-08-01T04:23:48.283Z,97130.72
2023-08-01T04:26:14.977Z,97132.84
2023-08-01T04:28:41.783Z,97124.66
2023-08-01T04:31:08.527Z,97120.72
2023-08-01T04:33:35.294Z,97129.75
2023-08-01T04:36:02.936Z,97133.31
2023-08-01T04:38:29.806Z,97128.91
2023-08-01T04:40:56.487Z,97127.25
2023-08-01T04:43:23.290Z,97120.72
2023-08-01T04:46:01.220Z,97119.31
2023-08-01T04:48:56.149Z,97117.78
2023-08-01T04:51:22.878Z,97115.78
2023-08-01T04:53:49.685Z,97120.38
2023-08-01T04:56:16.438Z,97125.75
2023-08-01T04:58:43.230Z,97126.94
2023-08-01T05:01:10.160Z,97133.63
2023-08-01T05:03:37.266Z,97137.88
2023-08-01T05:06:06.464Z,97123.41
2023-08-01T05:08:34.660Z,97122.66
2023-08-01T05:11:01.341Z,97122.19
2023-08-01T05:13:28.089Z,97141.28
2023-08-01T05:15:54.787Z,97150.63
2023-08-01T05:18:21.585Z,97150.81
2023-08-01T05:20:48.259Z,97159.84
2023-08-01T05:23:14.931Z,97162.91
2023-08-01T05:25:41.644Z,97180.84
2023-08-01T05:28:08.621Z,97170.00
2023-08-01T05:30:35.616Z,97170.97
2023-08-01T05:33:02.420Z,97183.59
2023-08-01T05:35:29.171Z,97186.69
2023-08-01T05:37:55.860Z,97191.94
2023-08-01T05:40:22.593Z,97197.06
2023-08-01T05:42:49.588Z,97180.91
2023-08-01T05:45:16.392Z,97180.06
2023-08-01T05:47:43.187Z,97180.66
2023-08-01T05:50:10.445Z,97188.41
2023-08-01T05:52:37.256Z,97191.38
2023-08-01T05:55:04.253Z,97174.72
2023-08-01T05:57:31.452Z,97177.31
2023-08-01T05:59:58.153Z,97173.53
2023-08-01T06:02:24.908Z,97178.53
2023-08-01T06:04:51.762Z,97187.72
2023-08-01T06:07:24.009Z,97187.75
2023-08-01T06:09:52.757Z,97176.88
2023-08-01T06:12:19.963Z,97168.00
2023-08-01T06:14:47.504Z,97189.78
2023-08-01T06:17:14.278Z,97190.13
2023-08-01T06:19:41.144Z,97191.03
2023-08-01T06:22:08.064Z,97196.34
2023-08-01T06:24:34.803Z,97201.22
2023-08-01T06:27:01.548Z,97208.50
2023-08-01T06:29:28.339Z,97210.38
2023-08-01T06:31:55.124Z,97218.84
2023-08-01T06:34:21.865Z,97215.66
2023-08-01T06:36:49.173Z,97220.59
2023-08-01T06:39:16.042Z,97218.00
2023-08-01T06:41:42.813Z,97208.63
2023-08-01T06:44:09.528Z,97215.69
2023-08-01T06:46:36.376Z,97215.69
2023-08-01T06:49:03.436Z,97211.31
2023-08-01T06:51:30.184Z,97212.25
2023-08-01T06:53:56.878Z,97217.69
2023-08-01T06:56:23.635Z,97217.44
2023-08-01T06:58:50.935Z,97210.13
2023-08-01T07:01:17.802Z,97206.31
2023-08-01T07:03:44.701Z,97205.72
2023-08-01T07:06:11.981Z,97210.50
2023-08-01T07:08:38.713Z,97210.50
2023-08-01T07:11:05.570Z,97214.22
2023-08-01T07:13:32.214Z,97211.97
2023-08-01T07:15:59.314Z,97218.97
2023-08-01T07:18:26.070Z,97206.72
2023-08-01T07:21:05.833Z,97199.94
2023-08-01T07:23:34.829Z,97212.38
2023-08-01T07:26:01.548Z,97203.09
2023-08-01T07:28:28.323Z,97193.47
2023-08-01T07:31:06.383Z,97196.81
2023-08-01T07:33:34.082Z,97217.63
2023-08-01T07:36:01.667Z,97226.72
2023-08-01T07:38:28.512Z,97224.06
2023-08-01T07:40:56.284Z,97225.97
2023-08-01T07:43:23.098Z,97230.03
2023-08-01T07:45:51.694Z,97225.66
2023-08-01T07:48:18.642Z,97227.78
2023-08-01T07:50:45.341Z,97221.13
2023-08-01T07:53:12.034Z,97213.00
2023-08-01T07:55:38.729Z,97228.59
2023-08-01T07:58:06.139Z,97247.97
2023-08-01T08:00:32.886Z,97259.88
2023-08-01T08:02:59.546Z,97269.28
2023-08-01T08:05:26.482Z,97285.66
2023-08-01T08:07:53.297Z,97306.28
2023-08-01T08:10:20.282Z,97323.34
2023-08-01T08:12:47.069Z,97310.41
2023-08-01T08:15:14.935Z,97323.59
2023-08-01T08:17:41.710Z,97351.22
2023-08-01T08:20:08.951Z,97380.97
2023-08-01T08:22:35.600Z,97413.19
2023-08-01T08:25:02.565Z,97437.53
2023-08-01T08:27:29.351Z,97455.22
2023-08-01T08:29:57.040Z,97448.91
2023-08-01T08:32:23.758Z,97482.31
2023-08-01T08:34:50.618Z,97509.25
2023-08-01T08:37:17.351Z,97557.19
2023-08-01T08:39:44.769Z,97595.41
2023-08-01T08:42:11.992Z,97667.91
2023-08-01T08:44:44.899Z,97714.44
2023-08-01T08:47:13.803Z,97752.53
2023-08-01T08:49:41.647Z,97800.25
2023-08-01T08:52:10.346Z,97878.41
2023-08-01T08:54:40.909Z,97974.97
2023-08-01T08:57:08.035Z,98094.84
2023-08-01T08:59:35.820Z,98175.47
2023-08-01T09:02:06.758Z,98021.28
2023-08-01T09:04:33.602Z,98047.44
2023-08-01T09:07:04.789Z,98252.44
2023-08-01T09:09:32.550Z,98317.19
2023-08-01T09:12:00.145Z,98400.06
2023-08-01T09:14:26.949Z,98542.47
2023-08-01T09:16:53.977Z,98622.63
2023-08-01T09:19:22.926Z,98857.47
2023-08-01T09:21:50.061Z,98902.56
2023-08-01T09:24:19.061Z,98940.31
2023-08-01T09:26:48.968Z,98967.28
2023-08-01T09:29:20.786Z,98961.78
2023-08-01T09:31:47.942Z,98969.84
2023-08-01T09:34:26.050Z,98976.66
2023-08-01T09:36:59.772Z,98969.16
2023-08-01T09:39:26.622Z,98960.88
2023-08-01T09:42:01.045Z,98961.94
2023-08-01T09:44:29.605Z,98955.28
2023-08-01T09:47:03.568Z,98942.75
2023-08-01T09:49:31.174Z,98950.78
2023-08-01T09:51:59.154Z,98944.97
2023-08-01T09:54:26.228Z,98933.28
2023-08-01T09:56:55.188Z,98932.53
2023-08-01T09:59:27.237Z,98962.09
2023-08-01T10:01:56.072Z,98976.47
2023-08-01T10:04:31.426Z,99008.72
2023-08-01T10:07:07.850Z,99030.91
2023-08-01T10:09:38.990Z,99043.16
2023-08-01T10:12:07.078Z,99108.63
2023-08-01T10:14:34.432Z,99108.22
2023-08-01T10:17:04.535Z,99112.16
2023-08-01T10:19:34.200Z,99112.00
2023-08-01T10:22:01.685Z,99047.28
2023-08-01T10:24:29.545Z,99064.66
2023-08-01T10:26:56.321Z,99075.94
2023-08-01T10:29:23.194Z,99088.22
2023-08-01T10:31:54.406Z,99131.47
2023-08-01T10:34:24.580Z,99149.16
2023-08-01T10:36:58.993Z,99166.13
2023-08-01T10:39:27.631Z,99182.97
2023-08-01T10:42:06.332Z,99186.50
2023-08-01T10:44:35.448Z,99190.72
2023-08-01T10:47:05.559Z,99203.25
2023-08-01T10:49:41.024Z,99227.47
2023-08-01T10:52:27.954Z,99236.84
2023-08-01T10:55:00.510Z,99240.44
2023-08-01T10:57:31.928Z,99233.47
2023-08-01T10:59:59.986Z,99250.03
2023-08-01T11:02:28.608Z,99258.19
2023-08-01T11:05:06.047Z,99284.53
2023-08-01T11:07:34.145Z,99310.72
2023-08-01T11:10:11.112Z,99328.09
2023-08-01T11:12:38.768Z,99343.81
2023-08-01T11:15:09.191Z,99380.00
2023-08-01T11:17:44.229Z,99388.78
2023-08-01T11:20:14.336Z,99386.50
2023-08-01T11:23:03.249Z,99386.06
2023-08-01T11:25:40.697Z,99376.41
2023-08-01T11:28:12.805Z,99373.28
2023-08-01T11:30:40.787Z,99366.75
2023-08-01T11:33:19.191Z,99352.94
2023-08-01T11:35:46.285Z,99351.91
2023-08-01T11:38:13.076Z,99342.22
2023-08-01T11:40:41.155Z,99332.94
2023-08-01T11:43:09.294Z,99326.91
2023-08-01T11:45:37.191Z,99312.31
2023-08-01T11:48:04.591Z,99303.47
2023-08-01T11:50:31.548Z,99294.50
2023-08-01T11:52:58.446Z,99296.03
2023-08-01T11:55:28.026Z,99295.00
2023-08-01T11:57:56.289Z,99292.13
2023-08-01T12:00:27.770Z,99284.09
2023-08-01T12:03:15.163Z,99291.53
2023-08-01T12:05:42.827Z,99288.06
2023-08-01T12:08:13.796Z,99268.94
2023-08-01T12:10:46.373Z,99266.75
2023-08-01T12:13:23.827Z,99240.84
2023-08-01T12:15:52.004Z,99230.84
2023-08-01T12:20:57.065Z,99226.84
2023-08-01T12:23:23.921Z,99217.59
2023-08-01T12:25:50.885Z,99219.56
2023-08-01T12:28:17.752Z,99203.72
2023-08-01T12:30:45.436Z,99186.72
2023-08-01T12:33:12.440Z,99165.94
2023-08-01T12:35:42.881Z,99148.06
2023-08-01T12:38:10.856Z,99135.25
2023-08-01T12:40:37.787Z,99111.34
2023-08-01T12:43:04.571Z,99101.16
2023-08-01T12:45:31.373Z,99087.44
2023-08-01T12:47:58.193Z,99075.78
2023-08-01T12:50:25.135Z,99061.63
2023-08-01T12:52:51.983Z,99055.75
2023-08-01T12:55:18.976Z,99045.63
2023-08-01T12:57:45.903Z,99127.84
2023-08-01T13:00:13.039Z,99125.09
2023-08-01T13:02:40.221Z,99119.59
2023-08-01T13:05:07.313Z,99109.06
2023-08-01T13:07:34.265Z,99099.84
2023-08-01T13:10:02.122Z,99093.47
2023-08-01T13:12:29.010Z,99086.03
2023-08-01T13:15:04.009Z,99080.97
2023-08-01T13:17:40.022Z,99073.91
2023-08-01T13:20:07.609Z,99069.88
2023-08-01T13:22:34.434Z,99068.00
2023-08-01T13:25:01.483Z,99073.22
2023-08-01T13:27:28.281Z,99077.25
2023-08-01T13:29:55.365Z,99067.06
2023-08-01T13:32:22.371Z,99069.34
2023-08-01T13:34:49.336Z,99072.16
2023-08-01T13:37:17.677Z,99077.50
2023-08-01T13:39:47.122Z,99073.69
2023-08-01T13:42:14.258Z,99087.03
2023-08-01T13:44:47.686Z,99096.09
2023-08-01T13:47:20.371Z,99095.09
2023-08-01T13:49:47.310Z,99086.28
2023-08-01T13:52:14.176Z,99105.44
2023-08-01T13:54:41.480Z,99090.66
2023-08-01T13:57:08.307Z,99090.78
2023-08-01T13:59:35.132Z,99083.16
2023-08-01T14:02:02.044Z,99088.56
2023-08-01T14:04:28.927Z,99075.88
2023-08-01T14:06:56.555Z,99077.53
2023-08-01T14:09:23.457Z,99089.19
2023-08-01T14:11:50.362Z,99122.03
2023-08-01T14:14:18.395Z,99134.00
2023-08-01T14:16:45.813Z,99160.16
2023-08-01T14:19:14.661Z,99193.44
2023-08-01T14:21:41.492Z,99216.69
2023-08-01T14:24:08.253Z,99183.75
2023-08-01T14:26:35.091Z,99206.84
2023-08-01T14:29:01.882Z,99226.97
2023-08-01T14:31:28.773Z,99252.69
2023-08-01T14:33:55.625Z,99287.25
2023-08-01T14:36:22.424Z,99317.00
2023-08-01T14:38:56.935Z,99348.94
2023-08-01T14:41:47.041Z,99381.13
2023-08-01T14:44:12.085Z,99381.94
2023-08-01T14:46:39.599Z,99376.97
2023-08-01T14:49:06.583Z,99378.75
2023-08-01T14:51:33.319Z,99390.97
2023-08-01T14:54:00.105Z,99378.03
2023-08-01T14:56:26.840Z,99383.22
2023-08-01T14:58:55.117Z,99407.19
2023-08-01T15:01:22.550Z,99441.06
2023-08-01T15:03:49.431Z,99451.06
2023-08-01T15:06:16.771Z,99474.47
2023-08-01T15:08:44.071Z,99475.22
2023-08-01T15:11:11.267Z,99498.06
2023-08-01T15:13:38.210Z,99521.41
2023-08-01T15:16:05.035Z,99513.94
2023-08-01T15:18:31.883Z,99519.09
2023-08-01T15:20:58.695Z,99510.28
2023-08-01T15:23:25.521Z,99512.47
2023-08-01T15:25:59.924Z,99509.03
2023-08-01T15:28:27.384Z,99502.00
2023-08-01T15:31:09.163Z,99505.41
2023-08-01T15:33:38.036Z,99509.47
2023-08-01T15:36:06.937Z,99514.66
2023-08-01T15:38:35.226Z,99533.06
2023-08-01T15:41:11.369Z,99539.00
2023-08-01T15:43:40.197Z,99555.72
2023-08-01T15:46:08.237Z,99536.69
2023-08-01T15:48:36.333Z,99507.34
2023-08-01T15:51:04.617Z,99504.88
2023-08-01T15:53:35.666Z,99483.91
2023-08-01T15:56:07.929Z,99476.84
2023-08-01T15:58:35.587Z,99470.53
2023-08-01T16:01:02.610Z,99475.00
2023-08-01T16:03:30.004Z,99478.38
2023-08-01T16:05:57.717Z,99485.63
2023-08-01T16:08:24.773Z,99493.72
2023-08-01T16:10:51.677Z,99476.81
2023-08-01T16:13:19.609Z,99477.25
2023-08-01T16:15:46.938Z,99471.84
2023-08-01T16:18:13.877Z,99470.13
2023-08-01T16:20:40.721Z,99463.66
2023-08-01T16:23:07.601Z,99462.19
2023-08-01T16:25:34.456Z,99465.41
2023-08-01T16:28:01.361Z,99463.63
2023-08-01T16:30:28.754Z,99449.28
2023-08-01T16:32:56.176Z,99466.50
2023-08-01T16:35:23.371Z,99465.56
2023-08-01T16:37:50.331Z,99455.06
2023-08-01T16:40:17.274Z,99452.81
2023-08-01T16:42:44.970Z,99441.97
2023-08-01T16:45:13.369Z,99432.97
2023-08-01T16:47:43.558Z,99440.31
2023-08-01T16:50:21.607Z,99435.59
2023-08-01T16:52:49.388Z,99446.34
2023-08-01T16:55:17.509Z,99447.94
2023-08-01T16:57:44.969Z,99461.22
2023-08-01T17:00:13.418Z,99456.56
2023-08-01T17:02:40.836Z,99463.47
2023-08-01T17:05:08.389Z,99461.81
2023-08-01T17:07:35.597Z,99455.81
2023-08-01T17:10:05.984Z,99450.19
2023-08-01T17:12:34.916Z,99436.16
2023-08-01T17:15:01.941Z,99434.47
2023-08-01T17:17:29.505Z,99419.34
2023-08-01T17:20:00.194Z,99404.78
2023-08-01T17:22:28.182Z,99388.69
2023-08-01T17:24:55.410Z,99386.03
2023-08-01T17:27:22.673Z,99384.69
2023-08-01T17:29:50.469Z,99387.44
2023-08-01T17:32:18.749Z,99397.78
2023-08-01T17:34:47.888Z,99393.44
2023-08-01T17:37:15.482Z,99392.56
2023-08-01T17:39:42.738Z,99392.00
2023-08-01T17:42:09.907Z,99398.44
2023-08-01T17:44:41.105Z,99397.13
2023-08-01T17:47:09.188Z,99389.72
2023-08-01T17:49:36.423Z,99395.16
2023-08-01T17:52:04.896Z,99397.22
2023-08-01T17:54:32.838Z,99387.16
2023-08-01T17:57:00.309Z,99385.84
2023-08-01T17:59:27.303Z,99376.03
2023-08-01T18:01:54.870Z,99374.25
2023-08-01T18:04:22.625Z,99376.78
2023-08-01T18:06:50.498Z,99369.91
2023-08-01T18:09:20.001Z,99356.19
2023-08-01T18:11:49.524Z,99358.75
2023-08-01T18:14:19.014Z,99351.56
2023-08-01T18:16:47.288Z,99343.19
2023-08-01T18:19:17.893Z,99346.69
2023-08-01T18:21:45.053Z,99344.44
2023-08-01T18:24:13.103Z,99334.63
2023-08-01T18:26:40.863Z,99337.78
2023-08-01T18:29:10.546Z,99328.91
2023-08-01T18:31:37.763Z,99328.44
2023-08-01T18:34:05.075Z,99334.25
2023-08-01T18:36:32.505Z,99332.81
2023-08-01T18:39:01.656Z,99327.06
2023-08-01T18:41:28.585Z,99334.38
2023-08-01T18:43:55.564Z,99330.31
2023-08-01T18:46:25.572Z,99330.31
2023-08-01T18:48:58.673Z,99326.59
2023-08-01T18:51:25.760Z,99328.63
2023-08-01T18:53:52.920Z,99328.63
2023-08-01T18:56:21.061Z,99309.38
2023-08-01T18:58:52.283Z,99309.75
2023-08-01T19:01:26.470Z,99311.38
2023-08-01T19:03:57.526Z,99305.75
2023-08-01T19:06:27.498Z,99296.50
2023-08-01T19:09:18.258Z,99288.84
2023-08-01T19:11:49.067Z,99287.53
2023-08-01T19:14:30.111Z,99272.59
2023-08-01T19:17:01.629Z,99268.22
2023-08-01T19:19:32.879Z,99263.47
2023-08-01T19:22:08.034Z,99337.09
2023-08-01T19:24:45.239Z,99337.47
2023-08-01T19:27:14.676Z,99332.06
2023-08-01T19:29:43.518Z,99314.41
2023-08-01T19:32:18.643Z,99325.53
2023-08-01T19:37:29.103Z,99304.53
2023-08-01T19:39:55.773Z,99291.50
2023-08-01T19:42:24.566Z,99293.69
2023-08-01T19:44:51.224Z,99285.78
2023-08-01T19:47:17.868Z,99282.19
2023-08-01T19:49:44.554Z,99273.69
2023-08-01T19:52:11.278Z,99271.59
2023-08-01T19:54:38.125Z,99269.34
2023-08-01T19:57:05.075Z,99253.94
2023-08-01T19:59:31.765Z,99245.22
2023-08-01T20:01:58.716Z,99243.72
2023-08-01T20:04:25.609Z,99233.78
2023-08-01T20:06:52.442Z,99222.09
2023-08-01T20:09:19.524Z,99217.34
2023-08-01T20:11:46.249Z,99210.16
2023-08-01T20:14:13.008Z,99215.53
2023-08-01T20:16:40.060Z,99190.50
2023-08-01T20:19:07.026Z,99189.84
2023-08-01T20:21:33.703Z,99187.28
2023-08-01T20:24:00.614Z,99191.06
2023-08-01T20:26:27.290Z,99155.25
2023-08-01T20:28:53.960Z,99135.25
2023-08-01T20:31:20.728Z,99141.00
2023-08-01T20:33:47.442Z,99135.41
2023-08-01T20:36:14.114Z,99120.22
2023-08-01T20:38:40.827Z,99114.47
2023-08-01T20:41:17.431Z,99107.19
2023-08-01T20:43:44.467Z,99096.31
2023-08-01T20:46:11.286Z,99105.50
2023-08-01T20:48:38.041Z,99086.59
2023-08-01T20:51:04.700Z,99079.03
2023-08-01T20:53:31.461Z,99077.72
2023-08-01T20:55:59.808Z,99068.47
2023-08-01T20:58:26.491Z,99062.63
2023-08-01T21:01:00.442Z,99061.94
2023-08-01T21:03:27.848Z,99052.69
2023-08-01T21:05:54.542Z,99047.22
2023-08-01T21:08:21.309Z,99055.53
2023-08-01T21:10:48.013Z,99052.13
2023-08-01T21:13:14.943Z,99047.69
2023-08-01T21:15:41.829Z,99052.13
2023-08-01T21:18:08.739Z,99042.66
2023-08-01T21:20:35.461Z,99037.94
2023-08-01T21:23:02.180Z,99037.78
2023-08-01T21:25:28.986Z,99037.94
2023-08-01T21:27:55.663Z,99036.06
2023-08-01T21:30:22.422Z,99037.13
2023-08-01T21:32:49.244Z,99038.81
2023-08-01T21:35:17.697Z,99036.47
2023-08-01T21:37:44.431Z,99038.81
2023-08-01T21:40:11.622Z,99028.03
2023-08-01T21:42:38.491Z,99021.88
2023-08-01T21:45:05.992Z,99027.53
2023-08-01T21:47:33.064Z,99029.94
2023-08-01T21:50:01.000Z,99011.44
2023-08-01T21:52:27.830Z,99012.53
2023-08-01T21:54:54.531Z,99009.53
2023-08-01T21:57:23.902Z,99012.47
2023-08-01T21:59:50.622Z,99005.38
2023-08-01T22:02:17.358Z,98995.16
2023-08-01T22:04:44.013Z,98997.41
2023-08-01T22:07:10.841Z,99000.47
2023-08-01T22:09:37.736Z,98994.13
2023-08-01T22:12:04.738Z,98981.81
2023-08-01T22:14:31.463Z,98982.97
2023-08-01T22:16:58.119Z,98990.34
2023-08-01T22:19:25.135Z,98980.44
2023-08-01T22:21:52.319Z,98977.97
2023-08-01T22:24:19.038Z,98979.00
2023-08-01T22:26:45.736Z,98981.09
2023-08-01T22:29:12.480Z,98982.88
2023-08-01T22:31:39.122Z,98976.38
2023-08-01T22:34:06.457Z,98983.72
2023-08-01T22:36:33.117Z,98986.47
2023-08-01T22:39:00.143Z,98974.84
2023-08-01T22:41:26.855Z,98971.72
2023-08-01T22:43:58.471Z,98967.03
2023-08-01T22:46:25.495Z,98967.94
2023-08-01T22:48:52.469Z,98964.56
2023-08-01T22:51:20.037Z,98965.69
2023-08-01T22:53:49.280Z,98970.97
2023-08-01T22:56:17.712Z,98971.34
2023-08-01T22:58:44.581Z,98953.88
2023-08-01T23:01:13.809Z,98956.81
2023-08-01T23:03:41.450Z,98953.59
2023-08-01T23:06:08.201Z,98953.19
2023-08-01T23:08:36.193Z,98689.66
2023-08-01T23:11:03.230Z,98674.72
2023-08-01T23:13:30.132Z,98681.19
2023-08-01T23:15:56.796Z,98677.00
2023-08-01T23:18:23.866Z,98659.00
2023-08-01T23:20:51.089Z,98673.81
2023-08-01T23:23:17.728Z,98662.03
2023-08-01T23:25:44.509Z,98652.38
2023-08-01T23:28:11.188Z,98654.22
2023-08-01T23:30:38.033Z,98649.50
2023-08-01T23:33:05.091Z,98645.09
2023-08-01T23:35:31.920Z,98648.59
2023-08-01T23:37:59.673Z,98656.59
2023-08-01T23:40:28.496Z,98616.69
2023-08-01T23:42:55.198Z,98599.28
2023-08-01T23:45:21.884Z,98807.28
2023-08-01T23:47:48.676Z,98816.34
2023-08-01T23:50:15.467Z,98806.91
2023-08-01T23:52:44.241Z,98799.34
2023-08-01T23:55:11.303Z,98671.00
2023-08-01T23:57:38.106Z,98663.97
